Time;durP1;ratioP1;P1;durP2;ratioP2;P2;SDS_P1;SDS_P2;PMS_P1;PMS_P2;Temp;Humidity;BMP_temperature;BMP_pressure;BME280_temperature;BME280_humidity;BME280_pressure;Samples;Min_cycle;Max_cycle;Signal;HPM_P1;HPM_P2
2023/07/28 00:00:10;;;;;;;1.75;0.85;;;;;;;16.58;100.00;100451.31;4985374;28;20046;-75
2023/07/28 00:02:35;;;;;;;1.48;0.80;;;;;;;16.77;100.00;100486.16;5006289;28;20701;-75
2023/07/28 00:05:01;;;;;;;1.85;1.35;;;;;;;16.72;100.00;100469.50;5005365;28;20038;-75
2023/07/28 00:07:26;;;;;;;1.77;0.65;;;;;;;16.15;100.00;100394.91;4991242;28;20034;-73
2023/07/28 00:09:52;;;;;;;2.60;1.08;;;;;;;15.99;100.00;100367.94;4990098;28;20382;-73
2023/07/28 00:12:17;;;;;;;1.02;0.68;;;;;;;16.55;100.00;100491.97;4989583;28;20038;-73
2023/07/28 00:14:43;;;;;;;1.33;0.80;;;;;;;16.06;100.00;100413.66;5029706;28;20394;-72
2023/07/28 00:17:08;;;;;;;2.28;0.98;;;;;;;15.95;100.00;100383.91;5018398;28;20030;-72
2023/07/28 00:19:34;;;;;;;1.65;1.00;;;;;;;16.44;100.00;100484.28;5006877;28;20042;-73
2023/07/28 00:21:59;;;;;;;1.25;0.82;;;;;;;16.10;100.00;100425.91;5006051;28;20041;-75
2023/07/28 00:24:24;;;;;;;3.60;1.58;;;;;;;16.01;100.00;100426.09;5004535;28;21267;-74
2023/07/28 00:26:50;;;;;;;2.17;0.80;;;;;;;16.56;100.00;100506.09;4987156;28;20038;-77
2023/07/28 00:29:15;;;;;;;1.73;0.95;;;;;;;16.57;100.00;100506.03;5007580;28;20462;-75
2023/07/28 00:31:41;;;;;;;1.35;0.70;;;;;;;15.75;100.00;100395.78;4992126;28;20042;-75
2023/07/28 00:34:06;;;;;;;1.80;0.90;;;;;;;16.21;100.00;100491.88;5005743;28;20037;-75
2023/07/28 00:36:32;;;;;;;0.93;0.50;;;;;;;16.37;100.00;100513.59;5005773;28;20045;-76
2023/07/28 00:38:57;;;;;;;2.28;0.93;;;;;;;15.92;100.00;100423.66;4993584;28;20470;-73
2023/07/28 00:41:23;;;;;;;1.25;0.70;;;;;;;16.40;100.00;100524.97;4994095;28;20462;-74
2023/07/28 00:43:48;;;;;;;2.67;1.13;;;;;;;15.99;100.00;100428.81;4993897;28;20084;-75
2023/07/28 00:46:15;;;;;;;1.55;0.93;;;;;;;16.46;100.00;100513.38;4997236;28;20466;-74
2023/07/28 00:48:41;;;;;;;2.42;1.10;;;;;;;16.42;100.00;100512.56;4991737;28;20049;-74
2023/07/28 00:51:08;;;;;;;3.80;1.05;;;;;;;16.32;100.00;100513.69;4991223;28;20030;-75
2023/07/28 00:53:33;;;;;;;1.77;1.00;;;;;;;16.44;100.00;100529.31;5016607;28;20056;-75
2023/07/28 00:56:00;;;;;;;3.08;0.70;;;;;;;15.84;100.00;100418.53;5004451;28;20393;-74
2023/07/28 00:58:26;;;;;;;2.30;1.27;;;;;;;16.33;100.00;100520.72;4993152;28;20038;-73
2023/07/28 01:00:51;;;;;;;2.17;1.58;;;;;;;16.14;100.00;100493.78;5002017;28;20041;-75
2023/07/28 01:03:18;;;;;;;1.65;0.95;;;;;;;16.19;100.00;100486.59;5005624;28;20113;-74
2023/07/28 01:05:55;;;;;;;0.93;0.65;;;;;;;16.43;100.00;100501.06;4991748;28;20026;-74
2023/07/28 01:08:34;;;;;;;2.67;1.10;;;;;;;15.73;100.00;100392.34;5007774;28;20478;-74
2023/07/28 01:10:59;;;;;;;1.20;0.50;;;;;;;15.74;100.00;100402.00;4989306;28;20506;-73
2023/07/28 01:13:25;;;;;;;13.85;1.48;;;;;;;16.32;100.00;100502.19;4989873;28;20039;-73
2023/07/28 01:15:50;;;;;;;0.82;0.70;;;;;;;15.62;100.00;100381.06;4998018;28;20112;-76
2023/07/28 01:18:16;;;;;;;3.70;1.40;;;;;;;16.32;100.00;100489.84;4995856;28;20477;-73
2023/07/28 01:20:45;;;;;;;3.08;1.30;;;;;;;16.18;100.00;100487.50;5010419;28;20085;-73
2023/07/28 01:23:23;;;;;;;3.47;1.40;;;;;;;16.23;100.00;100490.06;5003907;28;20026;-74
2023/07/28 01:25:57;;;;;;;3.08;1.67;;;;;;;16.12;100.00;100508.81;4986855;28;20051;-74
2023/07/28 01:28:23;;;;;;;1.17;0.80;;;;;;;16.14;100.00;100492.91;4995527;28;20077;-74
2023/07/28 01:30:49;;;;;;;2.95;0.95;;;;;;;15.60;100.00;100402.25;5009481;28;20054;-73
2023/07/28 01:33:14;;;;;;;1.83;0.73;;;;;;;16.03;100.00;100488.69;4996308;28;20030;-74
2023/07/28 01:35:40;;;;;;;1.65;1.55;;;;;;;15.43;100.00;100399.09;5010108;28;20060;-74
2023/07/28 01:38:06;;;;;;;3.65;0.98;;;;;;;15.93;100.00;100492.44;5015497;28;20037;-73
2023/07/28 01:40:32;;;;;;;6.07;1.20;;;;;;;15.35;100.00;100412.44;5015459;28;20497;-73
2023/07/28 01:42:58;;;;;;;2.55;2.00;;;;;;;15.55;100.00;100442.94;5009131;28;20049;-74
2023/07/28 01:45:24;;;;;;;2.90;1.50;;;;;;;15.98;100.00;100518.81;5017296;28;20061;-74
2023/07/28 01:47:49;;;;;;;1.98;1.42;;;;;;;15.49;100.00;100437.75;5019144;28;20022;-74
2023/07/28 01:50:14;;;;;;;1.55;0.80;;;;;;;15.27;100.00;100421.47;5010481;28;20034;-73
2023/07/28 01:52:40;;;;;;;1.52;0.75;;;;;;;15.95;100.00;100534.78;5008220;28;20060;-74
2023/07/28 01:55:06;;;;;;;1.92;1.17;;;;;;;16.02;100.00;100534.59;5018133;28;20782;-74
2023/07/28 01:57:38;;;;;;;2.38;1.02;;;;;;;16.03;100.00;100522.25;5003998;28;20446;-74
2023/07/28 02:00:04;;;;;;;1.83;1.00;;;;;;;16.10;100.00;100538.88;5014268;28;20060;-73
2023/07/28 02:02:30;;;;;;;1.75;1.02;;;;;;;15.45;100.00;100451.94;5011126;28;20030;-74
2023/07/28 02:04:55;;;;;;;1.75;0.75;;;;;;;15.34;100.00;100436.31;5007593;28;20516;-75
2023/07/28 02:07:21;;;;;;;3.45;1.50;;;;;;;15.77;100.00;100515.69;5009156;28;20042;-74
2023/07/28 02:09:46;;;;;;;3.85;1.30;;;;;;;15.50;100.00;100488.00;5013202;28;20768;-75
2023/07/28 02:12:12;;;;;;;2.10;0.90;;;;;;;15.76;100.00;100519.25;5011455;28;20041;-74
2023/07/28 02:14:37;;;;;;;2.72;1.20;;;;;;;15.22;100.00;100432.13;5014499;28;20030;-74
2023/07/28 02:17:03;;;;;;;2.65;1.75;;;;;;;15.38;100.00;100465.31;5008156;28;20060;-74
2023/07/28 02:19:28;;;;;;;3.95;1.33;;;;;;;15.75;100.00;100495.47;5016402;28;20404;-75
2023/07/28 02:21:54;;;;;;;2.53;0.88;;;;;;;15.48;100.00;100443.97;5018703;28;20091;-75
2023/07/28 02:24:19;;;;;;;3.33;1.10;;;;;;;15.36;100.00;100418.63;5007799;28;20362;-75
2023/07/28 02:26:45;;;;;;;2.60;1.45;;;;;;;15.98;100.00;100519.69;5012519;28;20116;-74
2023/07/28 02:29:10;;;;;;;1.63;0.98;;;;;;;15.95;100.00;100510.94;5010995;28;20034;-74
2023/07/28 02:31:35;;;;;;;3.15;1.13;;;;;;;15.39;100.00;100418.56;5019441;28;20087;-75
2023/07/28 02:34:01;;;;;;;2.05;0.85;;;;;;;15.34;100.00;100434.53;5013511;28;20549;-74
2023/07/28 02:36:26;;;;;;;2.65;1.20;;;;;;;15.67;100.00;100515.88;5007807;28;20045;-73
2023/07/28 02:38:52;;;;;;;1.48;0.75;;;;;;;15.60;100.00;100521.28;5010909;28;20034;-73
2023/07/28 02:41:17;;;;;;;1.85;0.93;;;;;;;15.30;100.00;100456.63;5019592;28;20747;-74
2023/07/28 02:43:43;;;;;;;2.72;1.48;;;;;;;15.72;100.00;100519.34;5012406;28;20382;-74
2023/07/28 02:46:08;;;;;;;2.25;1.05;;;;;;;15.81;100.00;100540.34;5017799;28;20057;-73
2023/07/28 02:48:34;;;;;;;2.67;1.05;;;;;;;15.62;100.00;100521.28;5011042;28;20083;-73
2023/07/28 02:50:59;;;;;;;1.77;1.52;;;;;;;15.08;100.00;100436.78;5008321;28;20597;-73
2023/07/28 02:53:25;;;;;;;5.47;2.22;;;;;;;15.64;100.00;100543.28;5007149;28;20088;-74
2023/07/28 02:55:50;;;;;;;2.15;1.45;;;;;;;15.76;100.00;100540.44;5013160;28;20049;-74
2023/07/28 02:58:15;;;;;;;2.53;1.75;;;;;;;15.80;100.00;100543.88;5013591;28;20044;-75
2023/07/28 03:00:42;;;;;;;1.60;0.88;;;;;;;14.95;100.00;100396.50;5015955;28;20072;-74
2023/07/28 03:03:12;;;;;;;7.00;1.48;;;;;;;15.18;100.00;100456.84;5008783;28;20034;-73
2023/07/28 03:05:38;;;;;;;6.22;1.55;;;;;;;15.16;100.00;100474.50;5008398;28;20022;-74
2023/07/28 03:08:04;;;;;;;9.32;1.33;;;;;;;15.61;100.00;100549.47;5016132;28;20401;-74
2023/07/28 03:10:30;;;;;;;6.05;1.52;;;;;;;15.58;100.00;100553.97;5011058;28;20041;-73
2023/07/28 03:12:56;;;;;;;3.08;1.70;;;;;;;15.68;100.00;100574.03;5011647;28;20417;-73
2023/07/28 03:15:22;;;;;;;3.20;2.85;;;;;;;15.79;100.00;100564.16;5016110;28;20030;-74
2023/07/28 03:17:49;;;;;;;2.22;1.17;;;;;;;15.75;100.00;100535.16;5006338;28;20585;-75
2023/07/28 03:20:15;;;;;;;11.82;2.05;;;;;;;15.22;100.00;100442.69;5008851;28;20058;-76
2023/07/28 03:22:40;;;;;;;3.50;1.52;;;;;;;15.09;100.00;100438.53;5009484;28;20076;-75
2023/07/28 03:25:06;;;;;;;5.15;1.25;;;;;;;15.10;100.00;100433.22;5008740;28;20034;-74
2023/07/28 03:27:31;;;;;;;2.17;0.85;;;;;;;15.12;100.00;100447.25;5005278;28;20493;-73
2023/07/28 03:29:57;;;;;;;2.22;0.90;;;;;;;15.05;100.00;100445.63;5016039;28;20030;-73
2023/07/28 03:32:22;;;;;;;13.50;2.75;;;;;;;15.77;100.00;100552.75;5010477;28;20587;-74
2023/07/28 03:34:48;;;;;;;2.03;0.98;;;;;;;15.73;100.00;100553.72;5011979;28;20050;-74
2023/07/28 03:37:13;;;;;;;4.70;1.35;;;;;;;15.67;100.00;100561.72;5020326;28;20046;-74
2023/07/28 03:39:39;;;;;;;4.82;1.23;;;;;;;15.06;100.00;100463.22;5016972;28;20120;-75
2023/07/28 03:42:04;;;;;;;7.03;4.15;;;;;;;15.73;100.00;100584.56;5020573;28;20038;-73
2023/07/28 03:44:30;;;;;;;3.40;1.05;;;;;;;15.03;100.00;100487.09;5009250;28;20042;-73
2023/07/28 03:46:56;;;;;;;3.25;1.13;;;;;;;15.28;100.00;100527.16;5009947;28;20045;-74
2023/07/28 03:49:21;;;;;;;5.28;2.92;;;;;;;15.34;100.00;100512.97;5009606;28;20104;-73
2023/07/28 03:51:47;;;;;;;14.52;1.33;;;;;;;15.78;100.00;100565.09;5009711;28;20137;-74
2023/07/28 03:54:12;;;;;;;2.67;1.50;;;;;;;15.25;100.00;100454.97;5011830;28;20034;-74
2023/07/28 03:56:38;;;;;;;3.13;1.20;;;;;;;15.90;100.00;100561.34;5001921;28;20058;-73
2023/07/28 03:59:03;;;;;;;20.42;2.15;;;;;;;15.65;100.00;100526.50;5012296;28;20038;-74
2023/07/28 04:01:28;;;;;;;2.55;1.52;;;;;;;15.20;100.00;100447.13;5006779;28;20076;-74
2023/07/28 04:03:54;;;;;;;3.03;2.05;;;;;;;15.94;100.00;100570.94;5005370;28;20180;-73
2023/07/28 04:06:40;;;;;;;3.60;1.90;;;;;;;15.94;100.00;100572.72;5007529;28;20045;-73
2023/07/28 04:09:06;;;;;;;2.10;1.38;;;;;;;15.37;100.00;100460.91;5012038;28;20045;-74
2023/07/28 04:11:32;;;;;;;1.98;1.25;;;;;;;15.43;100.00;100461.66;5001622;28;20810;-74
2023/07/28 04:13:57;;;;;;;2.17;1.55;;;;;;;15.40;100.00;100436.16;5006010;28;20081;-74
2023/07/28 04:16:23;;;;;;;2.72;1.70;;;;;;;15.47;100.00;100448.34;5007854;28;20042;-74
2023/07/28 04:18:48;;;;;;;1.38;1.00;;;;;;;15.57;100.00;100472.88;5011348;28;20050;-73
2023/07/28 04:21:14;;;;;;;5.55;1.30;;;;;;;15.56;100.00;100464.06;5011015;28;20041;-75
2023/07/28 04:23:40;;;;;;;2.40;1.60;;;;;;;16.21;100.00;100555.41;5013467;28;20030;-73
2023/07/28 04:26:06;;;;;;;2.10;1.02;;;;;;;15.81;100.00;100480.34;4985178;28;20046;-74
2023/07/28 04:28:31;;;;;;;2.45;1.75;;;;;;;15.66;100.00;100440.94;4999974;28;20088;-73
2023/07/28 04:30:57;;;;;;;1.20;0.70;;;;;;;16.51;100.00;100566.25;5000676;28;20038;-73
2023/07/28 04:33:22;;;;;;;2.05;0.98;;;;;;;16.42;100.00;100562.03;4996946;28;20045;-74
2023/07/28 04:35:48;;;;;;;2.05;1.60;;;;;;;15.88;100.00;100444.03;5004375;28;21861;-76
2023/07/28 04:38:13;;;;;;;6.60;2.10;;;;;;;16.72;100.00;100560.47;4993062;28;20026;-73
2023/07/28 04:40:39;;;;;;;2.22;1.00;;;;;;;16.25;100.00;100465.28;5002030;28;20046;-74
2023/07/28 04:43:04;;;;;;;1.90;1.20;;;;;;;16.03;100.00;100421.66;4988270;28;20434;-74
2023/07/28 04:45:29;;;;;;;3.15;1.92;;;;;;;16.81;100.00;100554.09;4989585;28;21171;-74
2023/07/28 04:47:55;;;;;;;2.58;1.48;;;;;;;16.16;100.00;100419.63;5011939;28;20458;-74
2023/07/28 04:50:20;;;;;;;3.08;0.85;;;;;;;16.73;100.00;100516.28;4989345;28;20030;-73
2023/07/28 04:52:46;;;;;;;3.03;1.67;;;;;;;17.06;100.00;100547.31;4989304;28;20219;-73
2023/07/28 04:55:11;;;;;;;1.98;1.15;;;;;;;16.56;100.00;100451.31;5019824;28;20482;-74
2023/07/28 04:57:37;;;;;;;2.30;1.25;;;;;;;17.28;100.00;100557.41;4987694;28;20365;-75
2023/07/28 05:00:02;;;;;;;2.30;1.00;;;;;;;17.37;100.00;100557.16;5004426;28;20042;-75
2023/07/28 05:02:28;;;;;;;2.80;1.20;;;;;;;17.45;100.00;100567.56;4988171;28;20034;-73
2023/07/28 05:04:53;;;;;;;3.22;2.28;;;;;;;17.34;100.00;100529.84;5015913;28;20448;-73
2023/07/28 05:07:18;;;;;;;9.40;2.85;;;;;;;17.49;100.00;100555.97;5004422;28;20057;-74
2023/07/28 05:09:44;;;;;;;11.07;2.60;;;;;;;17.67;100.00;100567.88;4991774;28;20717;-74
2023/07/28 05:12:10;;;;;;;3.55;1.42;;;;;;;17.23;100.00;100480.59;5000923;28;20183;-74
2023/07/28 05:14:35;;;;;;;2.85;1.30;;;;;;;17.86;100.00;100565.63;4993714;28;20022;-74
2023/07/28 05:17:01;;;;;;;2.55;1.13;;;;;;;17.92;100.00;100545.06;4997827;28;20478;-73
2023/07/28 05:19:26;;;;;;;5.47;1.48;;;;;;;18.04;100.00;100452.72;5015034;28;20060;-75
2023/07/28 05:21:52;;;;;;;3.22;1.60;;;;;;;18.33;100.00;100457.13;5007046;28;20402;-74
2023/07/28 05:24:17;;;;;;;13.75;1.90;;;;;;;18.99;100.00;100463.00;4992746;28;20050;-73
2023/07/28 05:26:43;;;;;;;2.92;1.55;;;;;;;19.96;100.00;100520.78;5009625;28;20022;-74
2023/07/28 05:29:08;;;;;;;6.00;1.70;;;;;;;20.52;100.00;100556.88;4998054;28;20022;-73
2023/07/28 05:31:34;;;;;;;1.45;1.20;;;;;;;20.52;100.00;100467.09;5012445;28;20128;-73
2023/07/28 05:33:59;;;;;;;2.28;2.08;;;;;;;20.00;100.00;100565.91;5002333;28;20050;-74
2023/07/28 05:36:25;;;;;;;3.45;1.80;;;;;;;20.51;100.00;100555.13;5003154;28;20045;-74
2023/07/28 05:38:51;;;;;;;4.75;1.27;;;;;;;20.56;100.00;100444.75;5009326;28;20084;-74
2023/07/28 05:41:16;;;;;;;4.38;1.42;;;;;;;20.65;100.00;100457.72;4996926;28;20122;-74
2023/07/28 05:43:41;;;;;;;2.35;1.42;;;;;;;21.42;100.00;100571.06;4988799;28;20077;-74
2023/07/28 05:46:07;;;;;;;2.85;1.60;;;;;;;21.67;100.00;100469.38;5004177;28;20078;-74
2023/07/28 05:48:32;;;;;;;3.25;0.55;;;;;;;22.98;100.00;100579.13;5011395;28;20050;-74
2023/07/28 05:50:58;;;;;;;2.92;1.58;;;;;;;22.97;100.00;100478.38;4989592;28;20026;-75
2023/07/28 05:53:23;;;;;;;2.40;1.33;;;;;;;21.71;100.00;100474.53;5015970;28;20026;-73
2023/07/28 05:55:49;;;;;;;2.33;1.20;;;;;;;21.89;100.00;100502.22;4998444;28;20050;-74
2023/07/28 05:58:15;;;;;;;2.40;0.80;;;;;;;23.51;100.00;100572.06;4997698;28;20038;-74
2023/07/28 06:00:40;;;;;;;1.48;0.70;;;;;;;23.96;91.93;100560.78;4997842;28;20046;-74
2023/07/28 06:03:08;;;;;;;1.45;1.08;;;;;;;24.49;84.51;100572.25;4988087;28;20046;-74
2023/07/28 06:05:34;;;;;;;1.45;0.70;;;;;;;24.57;80.62;100551.22;4984971;28;20030;-73
2023/07/28 06:07:59;;;;;;;2.17;1.02;;;;;;;24.54;84.80;100566.63;4989515;28;20043;-73
2023/07/28 06:10:24;;;;;;;1.77;0.80;;;;;;;24.05;77.29;100494.22;5005939;28;20763;-73
2023/07/28 06:12:50;;;;;;;4.68;0.50;;;;;;;24.70;84.30;100555.88;4999516;28;20042;-73
2023/07/28 06:15:15;;;;;;;1.80;1.30;;;;;;;23.34;78.21;100564.88;4992271;28;20069;-73
2023/07/28 06:17:41;;;;;;;2.05;0.75;;;;;;;23.07;73.60;100524.31;5007293;28;20037;-74
2023/07/28 06:20:07;;;;;;;2.30;1.35;;;;;;;22.51;76.12;100472.63;4999461;28;20037;-73
2023/07/28 06:22:32;;;;;;;3.03;1.10;;;;;;;23.93;78.86;100573.50;4992177;28;20042;-72
2023/07/28 06:24:58;;;;;;;6.35;1.45;;;;;;;24.05;76.28;100468.28;5009937;28;20457;-73
2023/07/28 06:27:23;;;;;;;4.50;1.00;;;;;;;24.47;67.02;100563.44;4999484;28;20475;-72
2023/07/28 06:29:49;;;;;;;2.92;0.90;;;;;;;24.33;60.62;100505.16;4988761;28;20467;-74
2023/07/28 06:32:14;;;;;;;1.80;0.70;;;;;;;24.14;68.35;100568.75;5014155;28;20132;-74
2023/07/28 06:34:40;;;;;;;1.90;1.00;;;;;;;24.62;75.48;100530.34;4989998;28;20054;-72
2023/07/28 06:37:05;;;;;;;1.88;0.77;;;;;;;24.58;63.15;100528.81;4989487;28;20096;-72
2023/07/28 06:39:31;;;;;;;1.15;0.80;;;;;;;24.67;54.68;100562.28;4997253;28;20046;-73
2023/07/28 06:41:56;;;;;;;0.80;0.73;;;;;;;24.88;62.10;100560.22;4995167;28;20529;-73
2023/07/28 06:44:21;;;;;;;2.17;0.68;;;;;;;25.04;56.38;100553.00;5003885;28;20033;-73
2023/07/28 06:46:47;;;;;;;1.63;0.47;;;;;;;23.83;52.77;100537.38;4990030;28;20042;-75
2023/07/28 06:49:13;;;;;;;0.80;0.40;;;;;;;23.30;54.17;100467.78;5006760;28;20042;-73
2023/07/28 06:51:38;;;;;;;1.92;1.02;;;;;;;24.40;61.65;100449.34;5002242;28;20497;-73
2023/07/28 06:54:04;;;;;;;2.42;1.10;;;;;;;23.65;51.20;100524.00;4995486;28;20049;-72
2023/07/28 06:56:30;;;;;;;1.02;0.68;;;;;;;23.77;51.71;100458.19;4994746;28;20361;-73
2023/07/28 06:58:55;;;;;;;1.05;0.77;;;;;;;25.09;51.51;100563.47;5003954;28;20038;-74
2023/07/28 07:01:22;;;;;;;4.30;0.55;;;;;;;24.90;51.35;100554.75;4990440;28;20078;-73
2023/07/28 07:03:47;;;;;;;1.92;1.25;;;;;;;24.96;51.58;100514.13;5001997;28;20065;-73
2023/07/28 07:06:12;;;;;;;1.02;0.43;;;;;;;24.62;50.55;100490.09;5002850;28;20439;-80
2023/07/28 07:08:38;;;;;;;1.52;1.02;;;;;;;24.54;71.41;100465.53;4985073;28;20064;-72
2023/07/28 07:11:05;;;;;;;1.75;0.88;;;;;;;23.76;63.05;100451.09;4998101;28;20341;-75
2023/07/28 07:13:31;;;;;;;0.75;0.43;;;;;;;25.12;79.67;100468.44;5001865;28;20068;-74
2023/07/28 07:15:57;;;;;;;2.60;0.85;;;;;;;24.81;57.77;100545.41;5004725;28;20087;-74
2023/07/28 07:18:22;;;;;;;3.67;0.73;;;;;;;23.36;56.69;100453.19;5018658;28;20038;-76
2023/07/28 07:20:48;;;;;;;0.73;0.43;;;;;;;25.06;63.32;100526.94;5007322;28;20033;-74
2023/07/28 07:23:13;;;;;;;1.95;1.20;;;;;;;23.79;60.73;100456.31;5012594;28;20018;-74
2023/07/28 07:25:39;;;;;;;0.95;0.55;;;;;;;24.27;65.04;100524.25;5003292;28;20553;-75
2023/07/28 07:28:05;;;;;;;1.05;0.68;;;;;;;24.24;63.89;100452.03;5005650;28;20037;-75
2023/07/28 07:30:35;;;;;;;2.50;0.93;;;;;;;24.61;59.05;100523.28;5016373;28;20045;-73
2023/07/28 07:33:01;;;;;;;1.90;1.13;;;;;;;24.44;61.62;100536.72;4997629;28;20119;-72
2023/07/28 07:35:26;;;;;;;3.97;1.13;;;;;;;24.88;66.69;100538.72;5015893;28;20045;-74
2023/07/28 07:37:52;;;;;;;2.42;1.52;;;;;;;24.76;61.65;100466.97;4997223;28;20078;-75
2023/07/28 07:40:17;;;;;;;8.38;0.85;;;;;;;23.85;62.07;100423.78;5010597;28;20034;-74
2023/07/28 07:42:46;;;;;;;1.38;0.75;;;;;;;24.11;58.84;100552.84;5002901;28;20045;-76
2023/07/28 07:45:12;;;;;;;1.60;0.52;;;;;;;24.46;63.67;100547.38;5000079;28;20038;-74
2023/07/28 07:47:39;;;;;;;9.30;1.02;;;;;;;24.33;55.53;100552.56;5017954;28;20173;-74
2023/07/28 07:50:06;;;;;;;3.88;0.88;;;;;;;24.31;64.41;100465.97;4996731;28;20034;-75
2023/07/28 07:52:32;;;;;;;0.82;0.47;;;;;;;25.11;61.12;100541.91;5008106;28;20041;-75
2023/07/28 07:54:57;;;;;;;3.22;1.60;;;;;;;24.41;60.74;100456.41;5007066;28;20046;-75
2023/07/28 07:57:23;;;;;;;2.40;0.93;;;;;;;24.21;51.52;100546.06;4983851;28;20035;-75
2023/07/28 07:59:48;;;;;;;1.45;0.88;;;;;;;24.32;58.28;100471.22;5007773;28;20049;-74
2023/07/28 08:02:13;;;;;;;1.63;0.68;;;;;;;24.60;53.60;100539.44;4989969;28;20042;-75
2023/07/28 08:04:39;;;;;;;1.48;0.70;;;;;;;24.73;56.68;100448.38;5000816;28;20038;-75
2023/07/28 08:07:05;;;;;;;0.77;0.70;;;;;;;23.39;52.55;100445.88;5006598;28;20049;-74
2023/07/28 08:09:30;;;;;;;0.80;0.40;;;;;;;24.57;54.88;100441.22;5001897;28;20094;-73
2023/07/28 08:11:56;;;;;;;2.70;0.88;;;;;;;24.46;52.12;100432.88;4990443;28;20080;-74
2023/07/28 08:14:21;;;;;;;0.63;0.57;;;;;;;25.15;53.01;100540.78;5007638;28;20041;-74
2023/07/28 08:16:47;;;;;;;0.98;0.65;;;;;;;24.16;50.88;100521.28;4991692;28;20367;-74
2023/07/28 08:19:12;;;;;;;1.15;0.77;;;;;;;24.67;51.24;100538.13;5001246;28;20124;-74
2023/07/28 08:21:38;;;;;;;2.58;0.73;;;;;;;24.61;52.99;100447.28;5001185;28;20067;-75
2023/07/28 08:24:04;;;;;;;0.93;0.63;;;;;;;24.33;51.38;100448.81;4990274;28;20054;-74
2023/07/28 08:26:30;;;;;;;1.55;0.73;;;;;;;25.20;53.22;100534.22;4995833;28;20030;-74
2023/07/28 08:28:55;;;;;;;1.95;0.93;;;;;;;25.03;52.18;100467.19;4987769;28;20050;-74
2023/07/28 08:31:21;;;;;;;1.42;0.60;;;;;;;25.06;50.76;100545.72;5000235;28;20419;-74
2023/07/28 08:33:46;;;;;;;1.58;0.68;;;;;;;24.99;51.11;100458.44;4998202;28;20034;-75
2023/07/28 08:36:12;;;;;;;1.83;1.33;;;;;;;25.84;53.31;100521.38;4992003;28;20073;-74
2023/07/28 08:38:38;;;;;;;1.42;0.70;;;;;;;25.63;53.89;100523.56;5008659;28;20454;-74
2023/07/28 08:41:05;;;;;;;1.23;0.80;;;;;;;26.14;52.45;100523.13;5000420;28;20764;-74
2023/07/28 08:43:31;;;;;;;1.27;0.95;;;;;;;25.90;51.34;100495.97;5006365;28;20046;-74
2023/07/28 08:45:57;;;;;;;1.63;0.93;;;;;;;25.81;52.35;100419.41;5008114;28;20072;-75
2023/07/28 08:48:25;;;;;;;2.13;1.15;;;;;;;26.30;49.56;100517.66;5006402;28;20486;-76
2023/07/28 08:50:52;;;;;;;0.95;0.75;;;;;;;25.78;51.17;100435.75;5007168;28;20036;-75
2023/07/28 08:53:17;;;;;;;1.45;0.77;;;;;;;26.10;51.20;100427.47;5005578;28;20053;-76
2023/07/28 08:55:43;;;;;;;1.40;0.80;;;;;;;26.04;49.14;100455.63;5006272;28;20038;-75
2023/07/28 08:58:21;;;;;;;1.85;0.57;;;;;;;26.90;50.97;100522.72;5005234;28;20045;-73
2023/07/28 09:00:51;;;;;;;3.25;0.77;;;;;;;26.90;50.03;100536.19;5002428;28;20048;-73
2023/07/28 09:03:18;;;;;;;0.70;0.57;;;;;;;26.04;49.36;100513.94;5007121;28;20125;-75
2023/07/28 09:05:46;;;;;;;0.90;0.50;;;;;;;26.75;50.65;100502.19;5006959;28;20037;-74
2023/07/28 09:08:12;;;;;;;0.63;0.45;;;;;;;27.05;49.71;100472.34;5002637;28;20041;-75
2023/07/28 09:10:45;;;;;;;1.00;0.63;;;;;;;27.07;48.55;100418.38;5004526;28;20045;-76
2023/07/28 09:13:15;;;;;;;1.85;1.02;;;;;;;26.92;49.48;100413.03;5006163;28;20058;-73
2023/07/28 09:15:41;;;;;;;1.88;0.77;;;;;;;27.27;49.10;100434.03;5006755;28;20092;-73
2023/07/28 09:18:12;;;;;;;1.70;1.27;;;;;;;26.66;48.95;100419.34;5003214;28;20137;-74
2023/07/28 09:20:39;;;;;;;4.38;1.27;;;;;;;26.60;45.86;100465.50;4997697;28;20107;-75
2023/07/28 09:23:07;;;;;;;3.40;1.17;;;;;;;27.81;47.96;100483.31;5026764;28;20303;-73
2023/07/28 09:25:34;;;;;;;0.50;0.40;;;;;;;27.90;46.24;100410.72;4996224;28;20383;-73
2023/07/28 09:27:59;;;;;;;4.65;1.98;;;;;;;28.24;46.21;100464.94;4997183;28;20435;-73
2023/07/28 09:30:26;;;;;;;1.92;0.85;;;;;;;28.33;46.26;100490.38;5002862;28;20054;-73
2023/07/28 09:32:55;;;;;;;1.52;0.70;;;;;;;26.85;43.53;100397.41;5005440;28;20718;-73
2023/07/28 09:35:22;;;;;;;0.70;0.38;;;;;;;27.04;47.98;100483.22;4997240;28;20145;-75
2023/07/28 09:37:50;;;;;;;1.80;0.98;;;;;;;26.88;45.02;100394.53;5001420;28;20045;-76
2023/07/28 09:40:21;;;;;;;0.85;0.70;;;;;;;28.16;47.27;100494.31;5006073;28;20088;-80
2023/07/28 09:42:51;;;;;;;1.38;0.90;;;;;;;28.21;47.10;100435.47;5004218;28;20088;-76
2023/07/28 09:45:18;;;;;;;1.27;0.80;;;;;;;28.61;46.43;100490.13;5004937;28;20394;-75
2023/07/28 09:47:50;;;;;;;0.90;0.63;;;;;;;27.75;45.46;100380.31;5002178;28;20033;-80
2023/07/28 09:50:18;;;;;;;2.10;1.00;;;;;;;27.44;44.39;100388.88;5000898;28;20444;-73
2023/07/28 09:52:46;;;;;;;0.82;0.60;;;;;;;28.51;43.79;100404.50;4993999;28;20046;-76
2023/07/28 09:55:13;;;;;;;1.27;0.63;;;;;;;28.89;42.38;100473.66;5005846;28;20091;-75
2023/07/28 09:57:44;;;;;;;0.70;0.57;;;;;;;28.67;44.84;100450.13;5001338;28;20108;-74
2023/07/28 10:00:12;;;;;;;1.25;0.60;;;;;;;28.65;43.60;100373.75;5005973;28;20111;-74
2023/07/28 10:02:39;;;;;;;1.48;0.65;;;;;;;27.78;45.10;100363.91;5004873;28;20054;-73
2023/07/28 10:05:07;;;;;;;2.55;1.15;;;;;;;28.67;43.15;100374.50;4998399;28;20851;-74
2023/07/28 10:07:40;;;;;;;1.95;0.93;;;;;;;28.93;41.65;100359.84;5004314;28;21245;-72
2023/07/28 10:10:09;;;;;;;12.75;2.10;;;;;;;28.53;43.10;100373.72;5003833;28;20245;-73
2023/07/28 10:12:51;;;;;;;1.23;0.77;;;;;;;29.40;40.76;100436.38;5003745;28;20167;-73
2023/07/28 10:15:21;;;;;;;1.93;0.97;;;;;;;30.12;40.78;100461.38;5005862;28;20037;-74
2023/07/28 10:17:57;;;;;;;1.73;0.95;;;;;;;30.06;40.93;100444.66;5001202;28;20034;-73
2023/07/28 10:20:30;;;;;;;0.80;0.60;;;;;;;29.21;41.09;100446.91;4996601;28;20034;-75
2023/07/28 10:23:03;;;;;;;3.45;0.73;;;;;;;28.98;42.10;100444.09;5002053;28;20441;-72
2023/07/28 10:25:32;;;;;;;1.10;0.63;;;;;;;29.40;39.96;100430.97;5002830;28;20066;-72
2023/07/28 10:27:58;;;;;;;0.68;0.68;;;;;;;29.06;41.38;100424.59;4999464;28;20046;-76
2023/07/28 10:30:24;;;;;;;2.20;1.02;;;;;;;29.09;41.04;100350.59;4993370;28;20053;-73
2023/07/28 10:32:52;;;;;;;1.50;0.68;;;;;;;29.40;39.92;100374.19;4990614;28;20050;-72
2023/07/28 10:35:18;;;;;;;1.00;0.65;;;;;;;29.91;39.65;100447.75;5003220;28;20540;-74
2023/07/28 10:37:45;;;;;;;1.85;0.88;;;;;;;29.02;41.02;100352.88;4998727;28;20042;-73
2023/07/28 10:40:31;;;;;;;1.85;0.60;;;;;;;29.25;39.08;100348.38;5001065;28;20056;-74
2023/07/28 10:42:58;;;;;;;1.20;0.75;;;;;;;29.69;40.00;100438.66;4995954;28;20394;-77
2023/07/28 10:45:27;;;;;;;1.88;1.15;;;;;;;30.18;38.95;100434.69;5004908;28;20050;-76
2023/07/28 10:47:55;;;;;;;1.50;1.23;;;;;;;29.77;39.31;100397.47;4999370;28;20029;-74
2023/07/28 10:50:22;;;;;;;1.17;0.60;;;;;;;29.31;37.70;100384.88;5005151;28;20504;-73
2023/07/28 10:52:48;;;;;;;0.93;0.70;;;;;;;29.82;36.83;100400.66;5003889;28;20038;-75
2023/07/28 10:55:18;;;;;;;2.58;1.17;;;;;;;29.83;37.22;100350.97;5003857;28;20046;-74
2023/07/28 10:57:45;;;;;;;1.85;1.10;;;;;;;30.58;36.90;100415.16;4998943;28;20049;-73
2023/07/28 11:00:12;;;;;;;0.88;0.75;;;;;;;29.88;39.01;100405.56;4998672;28;20050;-74
2023/07/28 11:02:47;;;;;;;1.52;0.77;;;;;;;28.99;38.48;100407.16;5017769;28;20070;-73
2023/07/28 11:05:24;;;;;;;0.82;0.68;;;;;;;29.57;37.68;100409.84;4996789;28;20567;-74
2023/07/28 11:07:53;;;;;;;1.88;0.93;;;;;;;29.10;38.85;100303.66;5005229;28;20041;-73
2023/07/28 11:10:19;;;;;;;1.35;0.80;;;;;;;30.14;37.59;100410.69;5004945;28;20508;-74
2023/07/28 11:12:48;;;;;;;3.40;1.17;;;;;;;30.14;37.33;100384.50;5005279;28;20064;-73
2023/07/28 11:15:16;;;;;;;1.88;1.27;;;;;;;29.68;38.27;100317.91;4995435;28;20050;-74
2023/07/28 11:17:45;;;;;;;2.05;1.02;;;;;;;30.37;36.70;100387.13;5003473;28;20041;-71